createdAt,value
2018-04-09T00:00:04.695Z,999.62
2018-04-09T00:05:00.495Z,999.63
2018-04-09T00:09:56.058Z,999.68
2018-04-09T00:14:53.156Z,999.55
2018-04-09T00:19:49.017Z,999.52
2018-04-09T00:24:49.805Z,999.53
2018-04-09T00:29:49.875Z,999.53
2018-04-09T00:34:45.963Z,999.56
2018-04-09T00:39:45.404Z,999.53
2018-04-09T00:44:46.226Z,999.51
2018-04-09T00:49:45.789Z,999.51
2018-04-09T00:54:44.589Z,999.49
2018-04-09T00:59:44.467Z,999.38
2018-04-09T01:04:38.807Z,999.44
2018-04-09T01:09:38.732Z,999.38
2018-04-09T01:14:37.800Z,999.41
2018-04-09T01:19:33.532Z,999.36
2018-04-09T01:24:29.316Z,999.36
2018-04-09T01:29:30.096Z,999.40
2018-04-09T01:34:25.878Z,999.45
2018-04-09T01:39:21.597Z,999.31
2018-04-09T01:44:21.787Z,999.40
2018-04-09T01:49:18.244Z,999.36
2018-04-09T01:54:14.003Z,999.43
2018-04-09T01:59:09.527Z,999.27
2018-04-09T02:04:09.664Z,999.30
2018-04-09T02:09:08.646Z,999.33
2018-04-09T02:14:03.722Z,999.30
2018-04-09T02:19:00.080Z,999.34
2018-04-09T02:23:59.786Z,999.32
2018-04-09T02:28:54.608Z,999.21
2018-04-09T02:33:50.379Z,999.14
2018-04-09T02:38:51.521Z,999.18
2018-04-09T02:43:46.275Z,999.14
2018-04-09T02:48:46.157Z,999.21
2018-04-09T02:53:45.112Z,999.14
2018-04-09T02:58:44.812Z,999.17
2018-04-09T03:03:39.858Z,999.06
2018-04-09T03:08:35.355Z,999.06
2018-04-09T03:13:31.097Z,999.11
2018-04-09T03:18:26.982Z,999.23
2018-04-09T03:23:26.462Z,999.16
2018-04-09T03:28:25.652Z,999.13
2018-04-09T03:33:24.660Z,999.03
2018-04-09T03:38:19.686Z,998.99
2018-04-09T03:43:15.685Z,999.05
2018-04-09T03:48:11.968Z,999.11
2018-04-09T03:53:07.974Z,999.10
2018-04-09T03:58:07.907Z,999.13
2018-04-09T04:03:07.746Z,999.21
2018-04-09T04:08:03.466Z,999.23
2018-04-09T04:13:00.212Z,999.25
2018-04-09T04:17:59.411Z,999.29
2018-04-09T04:22:54.323Z,999.23
2018-04-09T04:27:54.970Z,999.07
2018-04-09T04:32:49.805Z,999.12
2018-04-09T04:37:49.640Z,999.12
2018-04-09T04:42:45.921Z,999.13
2018-04-09T04:47:41.652Z,999.26
2018-04-09T04:52:41.759Z,999.22
2018-04-09T04:57:41.742Z,999.23
2018-04-09T05:02:36.523Z,999.21
2018-04-09T05:07:36.714Z,999.25
2018-04-09T05:12:35.957Z,999.24
2018-04-09T05:17:31.073Z,999.25
2018-04-09T05:22:31.293Z,999.21
2018-04-09T05:27:27.008Z,999.19
2018-04-09T05:32:22.923Z,999.15
2018-04-09T05:37:19.197Z,999.21
2018-04-09T05:42:18.929Z,999.21
2018-04-09T05:47:18.927Z,999.25
2018-04-09T05:52:14.146Z,999.32
2018-04-09T05:57:13.960Z,999.37
2018-04-09T06:02:14.828Z,999.36
2018-04-09T06:07:09.450Z,999.40
2018-04-09T06:12:10.250Z,999.51
2018-04-09T06:17:05.639Z,999.56
2018-04-09T06:22:01.808Z,999.60
2018-04-09T06:26:57.850Z,999.67
2018-04-09T06:31:54.293Z,999.68
2018-04-09T06:36:54.888Z,999.66
2018-04-09T06:41:57.409Z,999.67
2018-04-09T06:46:52.442Z,999.67
2018-04-09T06:51:48.544Z,999.62
2018-04-09T06:56:44.469Z,999.60
2018-04-09T07:01:46.048Z,999.57
2018-04-09T07:06:40.826Z,999.62
2018-04-09T07:11:36.446Z,999.59
2018-04-09T07:16:32.526Z,999.62
2018-04-09T07:21:28.868Z,999.54
2018-04-09T07:26:25.569Z,999.53
2018-04-09T07:31:24.090Z,999.65
2018-04-09T07:36:20.810Z,999.58
2018-04-09T07:41:16.327Z,999.67
2018-04-09T07:46:13.302Z,999.64
2018-04-09T07:51:13.099Z,999.62
2018-04-09T07:56:08.667Z,999.60
2018-04-09T08:01:09.849Z,999.66
2018-04-09T08:06:05.247Z,999.76
2018-04-09T08:11:06.805Z,999.80
2018-04-09T08:16:02.094Z,999.81
2018-04-09T08:21:02.794Z,999.68
2018-04-09T08:25:57.858Z,999.74
2018-04-09T08:30:54.925Z,999.93
2018-04-09T08:35:55.355Z,999.90
2018-04-09T08:40:54.816Z,999.86
2018-04-09T08:45:51.874Z,999.89
2018-04-09T08:50:47.805Z,999.84
2018-04-09T08:55:47.697Z,999.76
2018-04-09T09:00:47.421Z,999.84
2018-04-09T09:05:46.258Z,999.77
2018-04-09T09:10:48.136Z,999.89
2018-04-09T09:15:43.794Z,999.87
2018-04-09T09:20:39.599Z,999.84
2018-04-09T09:25:39.955Z,999.80
2018-04-09T09:30:39.799Z,999.69
2018-04-09T09:35:34.553Z,999.64
2018-04-09T09:40:34.386Z,999.60
2018-04-09T09:45:33.360Z,999.65
2018-04-09T09:50:33.144Z,999.65
2018-04-09T09:55:29.632Z,999.60
2018-04-09T10:00:26.500Z,999.48
2018-04-09T10:05:24.021Z,999.54
2018-04-09T10:10:21.342Z,999.57
2018-04-09T10:15:23.016Z,999.32
2018-04-09T10:20:22.679Z,999.48
2018-04-09T10:25:22.489Z,999.35
2018-04-09T10:30:22.448Z,999.21
2018-04-09T10:35:19.031Z,999.32
2018-04-09T10:40:19.784Z,999.13
2018-04-09T10:45:14.621Z,999.06
2018-04-09T10:50:12.871Z,999.17
2018-04-09T10:55:10.530Z,999.01
2018-04-09T11:00:06.037Z,999.00
2018-04-09T11:10:05.144Z,998.88
2018-04-09T11:15:00.866Z,998.77
2018-04-09T11:19:56.375Z,998.79
2018-04-09T11:24:58.527Z,998.82
2018-04-09T11:29:57.985Z,998.84
2018-04-09T11:34:56.680Z,998.77
2018-04-09T11:39:56.199Z,998.71
2018-04-09T11:44:55.562Z,998.71
2018-04-09T11:49:52.228Z,998.60
2018-04-09T11:54:48.647Z,998.65
2018-04-09T11:59:49.452Z,998.66
2018-04-09T12:04:45.624Z,998.58
2018-04-09T12:09:47.347Z,998.55
2018-04-09T12:14:47.459Z,998.56
2018-04-09T12:19:46.277Z,998.47
2018-04-09T12:24:41.388Z,998.39
2018-04-09T12:29:37.368Z,998.29
2018-04-09T12:34:39.012Z,998.28
2018-04-09T12:39:34.360Z,998.24
2018-04-09T12:44:34.478Z,998.21
2018-04-09T12:49:31.396Z,998.08
2018-04-09T12:54:33.380Z,998.11
2018-04-09T12:59:31.951Z,997.93
2018-04-09T13:04:31.435Z,997.94
2018-04-09T13:09:27.217Z,997.89
2018-04-09T13:14:28.100Z,997.90
2018-04-09T13:19:29.158Z,997.87
2018-04-09T13:24:23.795Z,998.01
2018-04-09T13:29:21.216Z,997.86
2018-04-09T13:34:17.338Z,997.82
2018-04-09T13:39:18.397Z,997.80
2018-04-09T13:44:14.421Z,997.72
2018-04-09T13:49:15.165Z,997.74
2018-04-09T13:54:13.531Z,997.64
2018-04-09T13:59:12.974Z,997.68
2018-04-09T14:04:08.289Z,997.53
2018-04-09T14:09:04.614Z,997.50
2018-04-09T14:14:01.090Z,997.47
2018-04-09T14:19:01.837Z,997.36
2018-04-09T14:23:56.528Z,997.39
2018-04-09T14:28:52.596Z,997.34
2018-04-09T14:33:54.255Z,997.20
2018-04-09T14:38:52.682Z,997.12
2018-04-09T14:43:51.473Z,997.14
2018-04-09T14:48:46.463Z,997.10
2018-04-09T14:53:47.213Z,996.90
2018-04-09T14:58:46.016Z,996.83
2018-04-09T15:03:42.203Z,996.74
2018-04-09T15:08:39.741Z,996.80
2018-04-09T15:13:39.084Z,996.77
2018-04-09T15:18:34.020Z,996.63
2018-04-09T15:23:32.271Z,996.66
2018-04-09T15:28:28.803Z,996.64
2018-04-09T15:33:31.445Z,996.44
2018-04-09T15:38:26.680Z,996.47
2018-04-09T15:43:23.824Z,996.44
2018-04-09T15:48:21.912Z,996.32
2018-04-09T15:53:21.529Z,996.37
2018-04-09T15:58:16.824Z,996.25
2018-04-09T16:03:13.928Z,996.30
2018-04-09T16:08:09.894Z,996.28
2018-04-09T16:13:10.880Z,996.27
2018-04-09T16:18:07.512Z,996.19
2018-04-09T16:23:07.335Z,996.28
2018-04-09T16:33:08.102Z,996.25
2018-04-09T16:38:03.324Z,996.23
2018-04-09T16:43:03.156Z,996.14
2018-04-09T16:47:58.179Z,996.12
2018-04-09T16:52:58.038Z,996.14
2018-04-09T16:57:57.339Z,996.20
2018-04-09T17:02:56.752Z,996.05
2018-04-09T17:07:52.661Z,996.16
2018-04-09T17:12:52.170Z,995.97
2018-04-09T17:17:47.268Z,995.92
2018-04-09T17:22:47.158Z,995.90
2018-04-09T17:27:42.039Z,995.94
2018-04-09T17:32:37.810Z,995.77
2018-04-09T17:37:38.514Z,995.62
2018-04-09T17:42:35.069Z,995.64
2018-04-09T17:47:34.865Z,995.65
2018-04-09T17:52:30.868Z,995.66
2018-04-09T17:57:31.663Z,995.59
2018-04-09T18:02:28.417Z,995.62
2018-04-09T18:07:24.374Z,995.64
2018-04-09T18:12:23.953Z,995.58
2018-04-09T18:17:18.936Z,995.54
2018-04-09T18:22:14.803Z,995.55
2018-04-09T18:27:15.617Z,995.47
2018-04-09T18:32:12.464Z,995.49
2018-04-09T18:37:08.081Z,995.36
2018-04-09T18:42:09.034Z,995.29
2018-04-09T18:47:08.509Z,995.27
2018-04-09T18:52:03.569Z,995.33
2018-04-09T18:56:59.387Z,995.27
2018-04-09T19:01:59.195Z,995.35
2018-04-09T19:06:54.393Z,995.41
2018-04-09T19:11:54.415Z,995.51
2018-04-09T19:16:54.836Z,995.44
2018-04-09T19:21:55.257Z,995.55
2018-04-09T19:26:55.209Z,995.57
2018-04-09T19:31:51.331Z,995.55
2018-04-09T19:36:51.935Z,995.54
2018-04-09T19:46:47.157Z,995.51
2018-04-09T19:51:42.983Z,995.54
2018-04-09T19:56:40.116Z,995.39
2018-04-09T20:01:40.117Z,995.47
2018-04-09T20:06:49.008Z,995.44
2018-04-09T20:11:45.304Z,995.42
2018-04-09T20:16:41.354Z,995.48
2018-04-09T20:21:42.115Z,995.44
2018-04-09T20:26:38.252Z,995.43
2018-04-09T20:31:39.724Z,995.59
2018-04-09T20:36:34.280Z,995.55
2018-04-09T20:41:30.304Z,995.48
2018-04-09T20:46:30.481Z,995.48
2018-04-09T20:51:30.772Z,995.43
2018-04-09T20:56:25.938Z,995.32
2018-04-09T21:01:25.420Z,995.27
2018-04-09T21:06:25.477Z,995.31
2018-04-09T21:11:21.801Z,995.30
2018-04-09T21:16:18.427Z,995.28
2018-04-09T21:21:19.814Z,995.33
2018-04-09T21:26:19.135Z,995.26
2018-04-09T21:31:14.285Z,995.30
2018-04-09T21:36:14.862Z,995.30
2018-04-09T21:41:13.832Z,995.22
2018-04-09T21:46:12.792Z,995.28
2018-04-09T21:51:08.018Z,995.32
2018-04-09T21:56:08.428Z,995.24
2018-04-09T22:01:08.316Z,995.22
2018-04-09T22:06:07.112Z,995.14
2018-04-09T22:11:06.113Z,995.14
2018-04-09T22:16:01.912Z,995.20
2018-04-09T22:21:02.679Z,995.28
2018-04-09T22:26:03.415Z,995.23
2018-04-09T22:30:58.497Z,995.23
2018-04-09T22:35:59.821Z,995.13
2018-04-09T22:40:58.837Z,995.20
2018-04-09T22:45:57.606Z,995.29
2018-04-09T22:50:56.574Z,995.37
2018-04-09T22:55:55.553Z,995.31
2018-04-09T23:00:50.683Z,995.27
2018-04-09T23:05:50.571Z,995.39
2018-04-09T23:10:45.703Z,995.33
2018-04-09T23:15:46.444Z,995.28
2018-04-09T23:20:45.690Z,995.25
2018-04-09T23:25:45.761Z,995.32
2018-04-09T23:30:41.784Z,995.27
2018-04-09T23:35:38.855Z,995.34
2018-04-09T23:40:39.122Z,995.36
2018-04-09T23:45:42.600Z,995.34
2018-04-09T23:50:37.388Z,995.32
2018-04-09T23:55:38.404Z,995.32
